createdAt,value
2023-05-10T07:03:11.783Z,15.50
2023-05-10T07:06:29.465Z,15.26
2023-05-10T07:09:35.724Z,15.49
2023-05-10T07:12:39.160Z,15.21
2023-05-10T07:15:41.699Z,15.47
2023-05-10T07:18:45.847Z,15.43
2023-05-10T07:21:48.350Z,15.48
2023-05-10T07:24:51.144Z,15.60
2023-05-10T07:27:53.545Z,15.49
2023-05-10T07:30:56.550Z,15.45
2023-05-10T07:34:00.329Z,16.56
2023-05-10T07:37:03.186Z,16.74
2023-05-10T07:40:07.309Z,17.06
2023-05-10T07:43:09.963Z,16.21
2023-05-10T07:46:12.507Z,16.39
2023-05-10T07:49:16.784Z,16.02
2023-05-10T07:52:21.226Z,16.13
2023-05-10T07:55:25.169Z,16.09
2023-05-10T07:58:27.923Z,15.53
2023-05-10T08:01:31.548Z,15.68
2023-05-10T08:04:35.873Z,15.54
2023-05-10T08:07:38.388Z,15.72
2023-05-10T08:10:41.090Z,16.19
2023-05-10T08:13:43.708Z,15.83
2023-05-10T08:16:46.457Z,16.31
2023-05-10T08:19:50.840Z,16.08
2023-05-10T08:22:54.309Z,16.02
2023-05-10T08:25:56.739Z,16.74
2023-05-10T08:28:59.456Z,16.12
2023-05-10T08:32:01.975Z,16.11
2023-05-10T08:35:06.651Z,16.41
2023-05-10T08:38:09.032Z,16.26
2023-05-10T08:41:11.719Z,16.03
2023-05-10T08:44:14.180Z,16.96
2023-05-10T08:47:17.513Z,17.11
2023-05-10T08:50:22.963Z,17.40
2023-05-10T08:53:28.837Z,16.89
2023-05-10T08:56:31.244Z,16.96
2023-05-10T08:59:34.172Z,17.02
2023-05-10T09:02:36.689Z,16.71
2023-05-10T09:05:40.715Z,16.53
2023-05-10T09:08:43.078Z,16.89
2023-05-10T09:11:45.933Z,17.01
2023-05-10T09:14:48.365Z,16.68
2023-05-10T09:17:51.223Z,16.76
2023-05-10T09:20:55.124Z,16.98
2023-05-10T09:23:57.788Z,17.23
2023-05-10T09:27:00.999Z,17.13
2023-05-10T09:30:04.132Z,17.25
2023-05-10T09:33:06.759Z,16.91
2023-05-10T09:36:11.405Z,17.16
2023-05-10T09:39:13.822Z,17.50
2023-05-10T09:42:19.639Z,17.36
2023-05-10T09:45:22.404Z,17.07
2023-05-10T09:48:25.102Z,16.96
2023-05-10T09:51:28.928Z,16.87
2023-05-10T09:54:31.824Z,17.15
2023-05-10T09:57:35.217Z,17.19
2023-05-10T10:00:37.999Z,16.85
2023-05-10T10:03:43.027Z,17.08
2023-05-10T10:06:46.875Z,17.51
2023-05-10T10:09:49.529Z,17.62
2023-05-10T10:12:52.013Z,18.22
2023-05-10T10:15:55.114Z,17.39
2023-05-10T10:18:57.872Z,17.47
2023-05-10T10:22:02.014Z,17.88
2023-05-10T10:25:04.565Z,17.46
2023-05-10T10:28:13.350Z,18.22
2023-05-10T10:31:22.180Z,17.84
2023-05-10T10:34:27.979Z,17.84
2023-05-10T10:37:46.431Z,17.70
2023-05-10T10:40:49.506Z,18.81
2023-05-10T10:43:54.116Z,18.90
2023-05-10T10:47:01.420Z,18.85
2023-05-10T10:50:05.126Z,18.58
2023-05-10T10:53:13.278Z,18.29
2023-05-10T10:56:16.477Z,18.10
2023-05-10T10:59:27.929Z,18.78
2023-05-10T11:02:45.331Z,18.89
2023-05-10T11:05:48.611Z,18.84
2023-05-10T11:08:53.641Z,19.10
2023-05-10T11:11:56.638Z,18.56
2023-05-10T11:14:59.244Z,18.82
2023-05-10T11:18:17.230Z,18.46
2023-05-10T11:21:19.691Z,18.28
2023-05-10T11:24:24.203Z,18.15
2023-05-10T11:27:26.698Z,18.14
2023-05-10T11:30:29.568Z,18.07
2023-05-10T11:33:32.024Z,17.84
2023-05-10T11:36:36.847Z,18.02
2023-05-10T11:39:46.159Z,18.55
2023-05-10T11:42:48.804Z,18.48
2023-05-10T11:45:51.272Z,18.87
2023-05-10T11:48:55.239Z,18.89
2023-05-10T11:52:05.275Z,18.66
2023-05-10T11:55:09.734Z,18.35
2023-05-10T11:58:12.251Z,18.12
2023-05-10T12:01:14.908Z,18.18
2023-05-10T12:04:17.874Z,17.96
2023-05-10T12:07:20.562Z,18.10
2023-05-10T12:10:27.679Z,18.24
2023-05-10T12:13:30.183Z,18.60
2023-05-10T12:16:32.942Z,18.60
2023-05-10T12:19:38.619Z,18.50
2023-05-10T12:22:41.556Z,18.79
2023-05-10T12:25:46.448Z,18.72
2023-05-10T12:28:49.156Z,18.39
2023-05-10T12:31:55.517Z,19.04
2023-05-10T12:34:58.241Z,18.57
2023-05-10T12:38:00.654Z,18.44
2023-05-10T12:41:05.338Z,18.59
2023-05-10T12:44:07.757Z,18.60
2023-05-10T12:47:10.606Z,18.49
2023-05-10T12:50:12.970Z,18.71
2023-05-10T12:53:16.496Z,19.09
2023-05-10T12:56:21.074Z,19.33
2023-05-10T12:59:23.948Z,19.20
2023-05-10T13:02:26.455Z,18.80
2023-05-10T13:05:29.167Z,18.95
2023-05-10T13:08:34.595Z,19.09
2023-05-10T13:11:38.777Z,18.96
2023-05-10T13:14:41.556Z,18.76
2023-05-10T13:17:44.539Z,18.45
2023-05-10T13:20:46.989Z,18.57
2023-05-10T13:23:49.632Z,19.16
2023-05-10T13:26:53.383Z,19.28
2023-05-10T13:29:56.280Z,19.37
2023-05-10T13:32:58.729Z,19.03
2023-05-10T13:36:01.420Z,19.10
2023-05-10T13:39:06.147Z,18.95
2023-05-10T13:42:10.202Z,19.05
2023-05-10T13:45:14.140Z,18.93
2023-05-10T13:48:17.093Z,19.22
2023-05-10T13:51:19.543Z,19.29
2023-05-10T13:54:23.137Z,19.62
2023-05-10T13:57:26.970Z,19.25
2023-05-10T14:00:29.580Z,19.06
2023-05-10T14:03:32.382Z,19.16
2023-05-10T14:06:34.930Z,19.73
2023-05-10T14:09:37.657Z,19.69
2023-05-10T14:12:41.557Z,19.31
2023-05-10T14:15:44.269Z,18.96
2023-05-10T14:18:47.060Z,18.63
2023-05-10T14:21:49.852Z,18.60
2023-05-10T14:24:52.233Z,18.55
2023-05-10T14:27:56.271Z,18.78
2023-05-10T14:30:58.883Z,19.20
2023-05-10T14:34:01.498Z,18.95
2023-05-10T14:37:03.958Z,19.22
2023-05-10T14:40:08.485Z,19.46
2023-05-10T14:43:12.286Z,19.61
2023-05-10T14:46:14.960Z,19.23
2023-05-10T14:49:17.347Z,19.25
2023-05-10T14:52:20.088Z,19.26
2023-05-10T14:55:22.606Z,19.13
2023-05-10T14:58:27.011Z,18.91
2023-05-10T15:01:29.658Z,18.80
2023-05-10T15:04:33.192Z,18.87
2023-05-10T15:07:36.072Z,18.87
